sensor_id;sensor_type;location;lat;lon;timestamp;temperature;humidity
72114;SHT31;59989;46.220;19.888;2023-05-16T00:00:25;13.92;98.28
72114;SHT31;59989;46.220;19.888;2023-05-16T00:03:29;13.94;98.30
72114;SHT31;59989;46.220;19.888;2023-05-16T00:06:32;13.92;98.33
72114;SHT31;59989;46.220;19.888;2023-05-16T00:09:35;13.92;98.37
72114;SHT31;59989;46.220;19.888;2023-05-16T00:12:38;13.92;98.42
72114;SHT31;59989;46.220;19.888;2023-05-16T00:15:41;13.94;98.43
72114;SHT31;59989;46.220;19.888;2023-05-16T00:18:46;13.92;98.50
72114;SHT31;59989;46.220;19.888;2023-05-16T00:21:49;13.92;98.52
72114;SHT31;59989;46.220;19.888;2023-05-16T00:24:52;13.92;98.56
72114;SHT31;59989;46.220;19.888;2023-05-16T00:27:54;13.91;98.65
72114;SHT31;59989;46.220;19.888;2023-05-16T00:30:57;13.94;98.62
72114;SHT31;59989;46.220;19.888;2023-05-16T00:33:59;13.94;98.69
72114;SHT31;59989;46.220;19.888;2023-05-16T00:37:02;13.97;98.68
72114;SHT31;59989;46.220;19.888;2023-05-16T00:40:05;13.97;98.74
72114;SHT31;59989;46.220;19.888;2023-05-16T00:43:10;13.98;98.74
72114;SHT31;59989;46.220;19.888;2023-05-16T00:46:12;14.01;98.78
72114;SHT31;59989;46.220;19.888;2023-05-16T00:49:15;14.02;98.77
72114;SHT31;59989;46.220;19.888;2023-05-16T00:52:17;13.99;98.78
72114;SHT31;59989;46.220;19.888;2023-05-16T00:55:20;14.02;98.85
72114;SHT31;59989;46.220;19.888;2023-05-16T00:58:23;13.98;98.87
72114;SHT31;59989;46.220;19.888;2023-05-16T01:01:27;14.04;98.86
72114;SHT31;59989;46.220;19.888;2023-05-16T01:04:30;14.01;98.89
72114;SHT31;59989;46.220;19.888;2023-05-16T01:07:35;14.04;98.92
72114;SHT31;59989;46.220;19.888;2023-05-16T01:17:30;14.08;99.05
72114;SHT31;59989;46.220;19.888;2023-05-16T01:20:46;14.06;99.06
72114;SHT31;59989;46.220;19.888;2023-05-16T01:23:59;14.09;99.06
72114;SHT31;59989;46.220;19.888;2023-05-16T01:27:05;14.10;99.10
72114;SHT31;59989;46.220;19.888;2023-05-16T01:30:16;14.13;99.09
72114;SHT31;59989;46.220;19.888;2023-05-16T01:33:19;14.15;99.06
72114;SHT31;59989;46.220;19.888;2023-05-16T01:36:46;14.19;99.02
72114;SHT31;59989;46.220;19.888;2023-05-16T01:40:00;14.15;98.97
72114;SHT31;59989;46.220;19.888;2023-05-16T01:43:13;14.18;98.89
72114;SHT31;59989;46.220;19.888;2023-05-16T01:46:23;14.15;98.78
72114;SHT31;59989;46.220;19.888;2023-05-16T01:49:33;14.18;98.70
72114;SHT31;59989;46.220;19.888;2023-05-16T01:53:05;14.15;98.62
72114;SHT31;59989;46.220;19.888;2023-05-16T01:56:14;14.13;98.58
72114;SHT31;59989;46.220;19.888;2023-05-16T01:59:19;14.13;98.55
72114;SHT31;59989;46.220;19.888;2023-05-16T02:02:22;14.15;98.51
72114;SHT31;59989;46.220;19.888;2023-05-16T02:05:25;14.13;98.50
72114;SHT31;59989;46.220;19.888;2023-05-16T02:08:28;14.13;98.42
72114;SHT31;59989;46.220;19.888;2023-05-16T02:11:30;14.09;98.35
72114;SHT31;59989;46.220;19.888;2023-05-16T02:14:33;14.06;98.33
72114;SHT31;59989;46.220;19.888;2023-05-16T02:17:35;14.06;98.26
72114;SHT31;59989;46.220;19.888;2023-05-16T02:20:38;14.02;98.25
72114;SHT31;59989;46.220;19.888;2023-05-16T02:23:41;14.02;98.26
72114;SHT31;59989;46.220;19.888;2023-05-16T02:26:44;14.01;98.24
72114;SHT31;59989;46.220;19.888;2023-05-16T02:29:46;13.98;98.18
72114;SHT31;59989;46.220;19.888;2023-05-16T02:32:49;13.97;98.15
72114;SHT31;59989;46.220;19.888;2023-05-16T02:35:52;13.95;98.15
72114;SHT31;59989;46.220;19.888;2023-05-16T02:38:54;13.94;98.21
72114;SHT31;59989;46.220;19.888;2023-05-16T02:41:57;13.91;98.12
72114;SHT31;59989;46.220;19.888;2023-05-16T02:44:59;13.88;98.18
72114;SHT31;59989;46.220;19.888;2023-05-16T02:48:02;13.89;98.18
72114;SHT31;59989;46.220;19.888;2023-05-16T02:51:04;13.94;98.21
72114;SHT31;59989;46.220;19.888;2023-05-16T02:54:07;13.91;98.17
72114;SHT31;59989;46.220;19.888;2023-05-16T02:57:11;13.91;98.19
72114;SHT31;59989;46.220;19.888;2023-05-16T03:00:14;13.91;98.19
72114;SHT31;59989;46.220;19.888;2023-05-16T03:03:19;13.86;98.05
72114;SHT31;59989;46.220;19.888;2023-05-16T03:06:22;13.86;98.11
72114;SHT31;59989;46.220;19.888;2023-05-16T03:09:26;13.88;98.06
72114;SHT31;59989;46.220;19.888;2023-05-16T03:12:28;13.86;98.09
72114;SHT31;59989;46.220;19.888;2023-05-16T03:15:31;13.85;98.04
72114;SHT31;59989;46.220;19.888;2023-05-16T03:18:34;13.89;98.03
72114;SHT31;59989;46.220;19.888;2023-05-16T03:21:36;13.91;97.94
72114;SHT31;59989;46.220;19.888;2023-05-16T03:24:40;13.91;97.96
72114;SHT31;59989;46.220;19.888;2023-05-16T03:27:45;13.89;97.95
72114;SHT31;59989;46.220;19.888;2023-05-16T03:30:48;13.89;97.95
72114;SHT31;59989;46.220;19.888;2023-05-16T03:33:50;13.94;97.92
72114;SHT31;59989;46.220;19.888;2023-05-16T03:36:53;13.92;97.87
72114;SHT31;59989;46.220;19.888;2023-05-16T03:39:56;13.94;97.78
72114;SHT31;59989;46.220;19.888;2023-05-16T03:42:58;13.94;97.69
72114;SHT31;59989;46.220;19.888;2023-05-16T03:46:01;13.94;97.70
72114;SHT31;59989;46.220;19.888;2023-05-16T03:49:04;13.97;97.60
72114;SHT31;59989;46.220;19.888;2023-05-16T03:52:06;13.97;97.56
72114;SHT31;59989;46.220;19.888;2023-05-16T03:55:09;13.95;97.50
72114;SHT31;59989;46.220;19.888;2023-05-16T03:58:12;13.97;97.52
72114;SHT31;59989;46.220;19.888;2023-05-16T04:01:15;13.98;97.48
72114;SHT31;59989;46.220;19.888;2023-05-16T04:04:17;14.01;97.43
72114;SHT31;59989;46.220;19.888;2023-05-16T04:07:20;14.01;97.38
72114;SHT31;59989;46.220;19.888;2023-05-16T04:10:25;14.01;97.41
72114;SHT31;59989;46.220;19.888;2023-05-16T04:13:27;14.01;97.37
72114;SHT31;59989;46.220;19.888;2023-05-16T04:16:30;14.04;97.41
72114;SHT31;59989;46.220;19.888;2023-05-16T04:19:32;14.05;97.38
72114;SHT31;59989;46.220;19.888;2023-05-16T04:22:35;14.04;97.44
72114;SHT31;59989;46.220;19.888;2023-05-16T04:25:37;14.05;97.41
72114;SHT31;59989;46.220;19.888;2023-05-16T04:28:40;14.08;97.40
72114;SHT31;59989;46.220;19.888;2023-05-16T04:31:43;14.05;97.38
72114;SHT31;59989;46.220;19.888;2023-05-16T04:34:45;14.08;97.32
72114;SHT31;59989;46.220;19.888;2023-05-16T04:37:49;14.06;97.37
72114;SHT31;59989;46.220;19.888;2023-05-16T04:40:52;14.09;97.40
72114;SHT31;59989;46.220;19.888;2023-05-16T04:43:55;14.10;97.34
72114;SHT31;59989;46.220;19.888;2023-05-16T04:46:57;14.09;97.33
72114;SHT31;59989;46.220;19.888;2023-05-16T04:50:01;14.09;97.36
72114;SHT31;59989;46.220;19.888;2023-05-16T04:53:03;14.09;97.36
72114;SHT31;59989;46.220;19.888;2023-05-16T04:56:06;14.08;97.34
72114;SHT31;59989;46.220;19.888;2023-05-16T04:59:09;14.08;97.44
72114;SHT31;59989;46.220;19.888;2023-05-16T05:02:12;14.09;97.36
72114;SHT31;59989;46.220;19.888;2023-05-16T05:05:14;14.12;97.34
72114;SHT31;59989;46.220;19.888;2023-05-16T05:08:17;14.13;97.21
72114;SHT31;59989;46.220;19.888;2023-05-16T05:11:20;14.16;97.16
72114;SHT31;59989;46.220;19.888;2023-05-16T05:14:22;14.16;97.15
72114;SHT31;59989;46.220;19.888;2023-05-16T05:17:25;14.18;97.12
72114;SHT31;59989;46.220;19.888;2023-05-16T05:20:28;14.22;97.19
72114;SHT31;59989;46.220;19.888;2023-05-16T05:23:32;14.22;97.15
72114;SHT31;59989;46.220;19.888;2023-05-16T05:26:36;14.23;97.14
72114;SHT31;59989;46.220;19.888;2023-05-16T05:29:39;14.22;97.03
72114;SHT31;59989;46.220;19.888;2023-05-16T05:32:42;14.28;96.96
72114;SHT31;59989;46.220;19.888;2023-05-16T05:35:44;14.29;96.93
72114;SHT31;59989;46.220;19.888;2023-05-16T05:38:47;14.33;96.75
72114;SHT31;59989;46.220;19.888;2023-05-16T05:41:49;14.36;96.76
72114;SHT31;59989;46.220;19.888;2023-05-16T05:44:52;14.37;96.69
72114;SHT31;59989;46.220;19.888;2023-05-16T05:47:54;14.39;96.48
72114;SHT31;59989;46.220;19.888;2023-05-16T05:50:58;14.41;96.44
72114;SHT31;59989;46.220;19.888;2023-05-16T05:54:01;14.47;96.28
72114;SHT31;59989;46.220;19.888;2023-05-16T05:57:04;14.56;96.18
72114;SHT31;59989;46.220;19.888;2023-05-16T06:00:07;14.63;95.93
72114;SHT31;59989;46.220;19.888;2023-05-16T06:03:11;14.66;95.71
72114;SHT31;59989;46.220;19.888;2023-05-16T06:06:14;14.70;95.45
72114;SHT31;59989;46.220;19.888;2023-05-16T06:09:16;14.77;95.42
72114;SHT31;59989;46.220;19.888;2023-05-16T06:12:19;14.83;95.37
72114;SHT31;59989;46.220;19.888;2023-05-16T06:15:21;14.85;95.42
72114;SHT31;59989;46.220;19.888;2023-05-16T06:18:24;14.83;95.39
72114;SHT31;59989;46.220;19.888;2023-05-16T06:21:26;14.81;95.42
72114;SHT31;59989;46.220;19.888;2023-05-16T06:24:29;14.83;95.47
72114;SHT31;59989;46.220;19.888;2023-05-16T06:27:32;14.85;95.38
72114;SHT31;59989;46.220;19.888;2023-05-16T06:30:34;14.92;95.09
72114;SHT31;59989;46.220;19.888;2023-05-16T06:33:37;15.04;94.88
72114;SHT31;59989;46.220;19.888;2023-05-16T06:36:39;15.09;94.71
72114;SHT31;59989;46.220;19.888;2023-05-16T06:39:42;15.11;94.72
72114;SHT31;59989;46.220;19.888;2023-05-16T06:42:45;15.11;94.71
72114;SHT31;59989;46.220;19.888;2023-05-16T06:45:48;15.12;94.56
72114;SHT31;59989;46.220;19.888;2023-05-16T06:48:51;15.19;94.39
72114;SHT31;59989;46.220;19.888;2023-05-16T06:51:54;15.26;93.90
72114;SHT31;59989;46.220;19.888;2023-05-16T06:54:56;15.38;93.75
72114;SHT31;59989;46.220;19.888;2023-05-16T06:57:59;15.55;93.68
72114;SHT31;59989;46.220;19.888;2023-05-16T07:01:01;15.59;93.42
72114;SHT31;59989;46.220;19.888;2023-05-16T07:04:04;15.50;93.18
72114;SHT31;59989;46.220;19.888;2023-05-16T07:07:07;15.46;93.77
72114;SHT31;59989;46.220;19.888;2023-05-16T07:10:10;15.50;93.77
72114;SHT31;59989;46.220;19.888;2023-05-16T07:13:13;15.47;93.71
72114;SHT31;59989;46.220;19.888;2023-05-16T07:16:15;15.49;93.63
72114;SHT31;59989;46.220;19.888;2023-05-16T07:19:18;15.46;93.37
72114;SHT31;59989;46.220;19.888;2023-05-16T07:22:20;15.50;93.53
72114;SHT31;59989;46.220;19.888;2023-05-16T07:25:23;15.52;93.62
72114;SHT31;59989;46.220;19.888;2023-05-16T07:28:26;15.62;93.48
72114;SHT31;59989;46.220;19.888;2023-05-16T07:31:29;15.74;93.61
72114;SHT31;59989;46.220;19.888;2023-05-16T07:34:32;15.73;93.04
72114;SHT31;59989;46.220;19.888;2023-05-16T07:37:35;15.73;92.97
72114;SHT31;59989;46.220;19.888;2023-05-16T07:40:38;15.82;92.98
72114;SHT31;59989;46.220;19.888;2023-05-16T07:43:40;15.91;92.79
72114;SHT31;59989;46.220;19.888;2023-05-16T07:46:43;16.07;92.28
72114;SHT31;59989;46.220;19.888;2023-05-16T07:49:46;16.25;91.91
72114;SHT31;59989;46.220;19.888;2023-05-16T07:52:49;16.33;91.68
72114;SHT31;59989;46.220;19.888;2023-05-16T07:55:52;16.48;91.52
72114;SHT31;59989;46.220;19.888;2023-05-16T07:58:55;16.40;91.20
72114;SHT31;59989;46.220;19.888;2023-05-16T08:01:57;16.48;91.54
72114;SHT31;59989;46.220;19.888;2023-05-16T08:05:00;16.41;91.68
72114;SHT31;59989;46.220;19.888;2023-05-16T08:08:03;16.42;91.78
72114;SHT31;59989;46.220;19.888;2023-05-16T08:11:05;16.44;91.81
72114;SHT31;59989;46.220;19.888;2023-05-16T08:14:08;16.51;91.82
72114;SHT31;59989;46.220;19.888;2023-05-16T08:17:13;16.58;91.48
72114;SHT31;59989;46.220;19.888;2023-05-16T08:20:16;16.61;91.35
72114;SHT31;59989;46.220;19.888;2023-05-16T08:23:18;16.73;91.31
72114;SHT31;59989;46.220;19.888;2023-05-16T08:26:22;16.61;91.38
72114;SHT31;59989;46.220;19.888;2023-05-16T08:29:25;16.56;91.68
72114;SHT31;59989;46.220;19.888;2023-05-16T08:32:28;16.61;91.89
72114;SHT31;59989;46.220;19.888;2023-05-16T08:35:30;16.63;91.70
72114;SHT31;59989;46.220;19.888;2023-05-16T08:38:33;16.59;91.58
72114;SHT31;59989;46.220;19.888;2023-05-16T08:41:36;16.68;91.46
72114;SHT31;59989;46.220;19.888;2023-05-16T08:44:39;16.87;91.47
72114;SHT31;59989;46.220;19.888;2023-05-16T08:47:42;16.99;90.84
72114;SHT31;59989;46.220;19.888;2023-05-16T08:50:46;17.02;90.85
72114;SHT31;59989;46.220;19.888;2023-05-16T08:53:56;17.21;90.42
72114;SHT31;59989;46.220;19.888;2023-05-16T08:57:01;17.32;90.23
72114;SHT31;59989;46.220;19.888;2023-05-16T09:00:06;17.37;90.42
72114;SHT31;59989;46.220;19.888;2023-05-16T09:03:13;17.24;90.65
72114;SHT31;59989;46.220;19.888;2023-05-16T09:06:17;17.06;90.85
72114;SHT31;59989;46.220;19.888;2023-05-16T09:09:20;16.93;90.60
72114;SHT31;59989;46.220;19.888;2023-05-16T09:12:23;17.02;90.67
72114;SHT31;59989;46.220;19.888;2023-05-16T09:15:30;17.20;90.57
72114;SHT31;59989;46.220;19.888;2023-05-16T09:18:33;17.67;89.88
72114;SHT31;59989;46.220;19.888;2023-05-16T09:21:36;17.79;90.14
72114;SHT31;59989;46.220;19.888;2023-05-16T09:24:41;18.06;89.89
72114;SHT31;59989;46.220;19.888;2023-05-16T09:27:47;17.96;89.66
72114;SHT31;59989;46.220;19.888;2023-05-16T09:30:51;17.79;90.39
72114;SHT31;59989;46.220;19.888;2023-05-16T09:33:57;18.16;90.01
72114;SHT31;59989;46.220;19.888;2023-05-16T09:36:59;18.54;89.04
72114;SHT31;59989;46.220;19.888;2023-05-16T09:40:02;18.84;88.61
72114;SHT31;59989;46.220;19.888;2023-05-16T09:43:06;19.24;87.58
72114;SHT31;59989;46.220;19.888;2023-05-16T09:46:13;19.74;85.74
72114;SHT31;59989;46.220;19.888;2023-05-16T09:49:21;20.08;84.80
72114;SHT31;59989;46.220;19.888;2023-05-16T09:52:27;20.28;84.72
72114;SHT31;59989;46.220;19.888;2023-05-16T09:55:30;19.91;84.23
72114;SHT31;59989;46.220;19.888;2023-05-16T09:58:37;20.15;83.47
72114;SHT31;59989;46.220;19.888;2023-05-16T10:01:40;20.52;82.92
72114;SHT31;59989;46.220;19.888;2023-05-16T10:04:43;20.67;82.32
72114;SHT31;59989;46.220;19.888;2023-05-16T10:07:46;20.96;81.76
72114;SHT31;59989;46.220;19.888;2023-05-16T10:10:54;20.72;80.57
72114;SHT31;59989;46.220;19.888;2023-05-16T10:13:56;20.52;82.04
72114;SHT31;59989;46.220;19.888;2023-05-16T10:16:59;20.18;82.92
72114;SHT31;59989;46.220;19.888;2023-05-16T10:20:05;19.85;82.42
72114;SHT31;59989;46.220;19.888;2023-05-16T10:23:12;19.87;83.96
72114;SHT31;59989;46.220;19.888;2023-05-16T10:26:16;19.77;84.31
72114;SHT31;59989;46.220;19.888;2023-05-16T10:29:19;19.67;84.41
72114;SHT31;59989;46.220;19.888;2023-05-16T10:32:22;19.39;84.52
72114;SHT31;59989;46.220;19.888;2023-05-16T10:35:27;19.23;85.23
72114;SHT31;59989;46.220;19.888;2023-05-16T10:38:30;19.29;84.93
72114;SHT31;59989;46.220;19.888;2023-05-16T10:41:33;19.50;85.24
72114;SHT31;59989;46.220;19.888;2023-05-16T10:44:37;19.59;84.02
72114;SHT31;59989;46.220;19.888;2023-05-16T10:47:40;19.34;83.95
72114;SHT31;59989;46.220;19.888;2023-05-16T10:50:44;19.32;84.04
72114;SHT31;59989;46.220;19.888;2023-05-16T10:53:50;19.23;85.38
72114;SHT31;59989;46.220;19.888;2023-05-16T10:56:56;19.30;85.50
72114;SHT31;59989;46.220;19.888;2023-05-16T10:59:58;19.05;85.89
72114;SHT31;59989;46.220;19.888;2023-05-16T11:03:04;18.92;86.24
72114;SHT31;59989;46.220;19.888;2023-05-16T11:06:08;18.78;86.79
72114;SHT31;59989;46.220;19.888;2023-05-16T11:12:14;18.99;86.78
72114;SHT31;59989;46.220;19.888;2023-05-16T11:18:22;19.02;86.81
72114;SHT31;59989;46.220;19.888;2023-05-16T11:22:28;18.98;87.13
72114;SHT31;59989;46.220;19.888;2023-05-16T11:25:10;18.98;87.57
72114;SHT31;59989;46.220;19.888;2023-05-16T11:28:13;19.18;87.05
72114;SHT31;59989;46.220;19.888;2023-05-16T11:31:16;19.23;86.50
72114;SHT31;59989;46.220;19.888;2023-05-16T11:34:19;19.22;85.89
72114;SHT31;59989;46.220;19.888;2023-05-16T11:37:22;19.40;85.96
72114;SHT31;59989;46.220;19.888;2023-05-16T11:40:26;19.53;85.77
72114;SHT31;59989;46.220;19.888;2023-05-16T11:43:28;19.39;85.90
72114;SHT31;59989;46.220;19.888;2023-05-16T11:46:32;19.39;86.29
72114;SHT31;59989;46.220;19.888;2023-05-16T11:49:40;19.46;86.03
72114;SHT31;59989;46.220;19.888;2023-05-16T11:52:45;19.51;86.56
72114;SHT31;59989;46.220;19.888;2023-05-16T11:55:48;19.43;85.65
72114;SHT31;59989;46.220;19.888;2023-05-16T11:58:58;19.56;86.02
72114;SHT31;59989;46.220;19.888;2023-05-16T12:02:02;19.73;86.64
72114;SHT31;59989;46.220;19.888;2023-05-16T12:05:09;19.88;86.05
72114;SHT31;59989;46.220;19.888;2023-05-16T12:08:14;19.77;86.23
72114;SHT31;59989;46.220;19.888;2023-05-16T12:11:17;19.82;86.05
72114;SHT31;59989;46.220;19.888;2023-05-16T12:14:20;19.73;86.09
72114;SHT31;59989;46.220;19.888;2023-05-16T12:17:23;19.66;86.03
72114;SHT31;59989;46.220;19.888;2023-05-16T12:20:26;19.75;86.15
72114;SHT31;59989;46.220;19.888;2023-05-16T12:23:28;19.77;86.61
72114;SHT31;59989;46.220;19.888;2023-05-16T12:26:32;19.63;86.97
72114;SHT31;59989;46.220;19.888;2023-05-16T12:29:38;19.46;87.42
72114;SHT31;59989;46.220;19.888;2023-05-16T12:32:40;19.40;87.01
72114;SHT31;59989;46.220;19.888;2023-05-16T12:35:44;19.40;87.00
72114;SHT31;59989;46.220;19.888;2023-05-16T12:38:48;19.43;86.97
72114;SHT31;59989;46.220;19.888;2023-05-16T12:41:50;19.40;87.49
72114;SHT31;59989;46.220;19.888;2023-05-16T12:44:56;19.34;88.11
72114;SHT31;59989;46.220;19.888;2023-05-16T12:48:04;19.30;88.38
72114;SHT31;59989;46.220;19.888;2023-05-16T12:51:15;19.30;87.98
72114;SHT31;59989;46.220;19.888;2023-05-16T12:54:18;19.37;88.06
72114;SHT31;59989;46.220;19.888;2023-05-16T12:57:24;19.36;87.46
72114;SHT31;59989;46.220;19.888;2023-05-16T13:00:26;19.42;87.59
72114;SHT31;59989;46.220;19.888;2023-05-16T13:03:29;19.56;87.17
72114;SHT31;59989;46.220;19.888;2023-05-16T13:06:35;19.69;86.95
72114;SHT31;59989;46.220;19.888;2023-05-16T13:09:59;19.88;86.62
72114;SHT31;59989;46.220;19.888;2023-05-16T13:13:02;19.91;86.72
72114;SHT31;59989;46.220;19.888;2023-05-16T13:16:05;19.85;86.97
72114;SHT31;59989;46.220;19.888;2023-05-16T13:19:08;19.90;86.97
72114;SHT31;59989;46.220;19.888;2023-05-16T13:22:11;19.82;87.66
72114;SHT31;59989;46.220;19.888;2023-05-16T13:25:13;19.91;87.10
72114;SHT31;59989;46.220;19.888;2023-05-16T13:28:16;19.87;87.17
72114;SHT31;59989;46.220;19.888;2023-05-16T13:31:19;19.78;87.35
72114;SHT31;59989;46.220;19.888;2023-05-16T13:34:23;19.71;87.16
72114;SHT31;59989;46.220;19.888;2023-05-16T13:37:26;19.77;87.27
72114;SHT31;59989;46.220;19.888;2023-05-16T13:40:29;19.73;87.62
72114;SHT31;59989;46.220;19.888;2023-05-16T13:43:31;19.77;87.69
72114;SHT31;59989;46.220;19.888;2023-05-16T13:46:34;19.81;88.25
72114;SHT31;59989;46.220;19.888;2023-05-16T13:49:37;19.73;88.51
72114;SHT31;59989;46.220;19.888;2023-05-16T13:52:40;20.00;88.49
72114;SHT31;59989;46.220;19.888;2023-05-16T13:55:42;20.30;87.72
72114;SHT31;59989;46.220;19.888;2023-05-16T13:58:45;20.21;87.85
72114;SHT31;59989;46.220;19.888;2023-05-16T14:01:53;20.11;88.28
72114;SHT31;59989;46.220;19.888;2023-05-16T14:04:56;20.12;88.79
72114;SHT31;59989;46.220;19.888;2023-05-16T14:07:59;19.94;88.83
72114;SHT31;59989;46.220;19.888;2023-05-16T14:11:02;19.78;89.67
72114;SHT31;59989;46.220;19.888;2023-05-16T14:14:04;19.69;89.71
72114;SHT31;59989;46.220;19.888;2023-05-16T14:17:07;19.54;89.93
72114;SHT31;59989;46.220;19.888;2023-05-16T14:20:09;19.39;89.96
72114;SHT31;59989;46.220;19.888;2023-05-16T14:23:12;19.32;90.39
72114;SHT31;59989;46.220;19.888;2023-05-16T14:26:15;19.23;90.60
72114;SHT31;59989;46.220;19.888;2023-05-16T14:29:20;19.18;90.96
72114;SHT31;59989;46.220;19.888;2023-05-16T14:32:23;19.08;91.22
72114;SHT31;59989;46.220;19.888;2023-05-16T14:35:25;19.08;91.33
72114;SHT31;59989;46.220;19.888;2023-05-16T14:38:28;19.05;91.45
72114;SHT31;59989;46.220;19.888;2023-05-16T14:41:31;19.08;91.45
72114;SHT31;59989;46.220;19.888;2023-05-16T14:44:33;19.12;91.39
72114;SHT31;59989;46.220;19.888;2023-05-16T14:47:36;19.15;91.41
72114;SHT31;59989;46.220;19.888;2023-05-16T14:50:39;19.13;91.41
72114;SHT31;59989;46.220;19.888;2023-05-16T14:53:42;19.22;91.29
72114;SHT31;59989;46.220;19.888;2023-05-16T14:56:47;19.36;91.10
72114;SHT31;59989;46.220;19.888;2023-05-16T14:59:50;19.37;90.75
72114;SHT31;59989;46.220;19.888;2023-05-16T15:02:52;19.36;90.09
72114;SHT31;59989;46.220;19.888;2023-05-16T15:05:55;19.51;89.99
72114;SHT31;59989;46.220;19.888;2023-05-16T15:08:58;19.77;88.82
72114;SHT31;59989;46.220;19.888;2023-05-16T15:12:00;20.70;86.11
72114;SHT31;59989;46.220;19.888;2023-05-16T15:15:03;20.75;85.47
72114;SHT31;59989;46.220;19.888;2023-05-16T15:18:06;20.96;84.68
72114;SHT31;59989;46.220;19.888;2023-05-16T15:21:09;21.72;82.52
72114;SHT31;59989;46.220;19.888;2023-05-16T15:24:11;21.20;83.72
72114;SHT31;59989;46.220;19.888;2023-05-16T15:27:14;21.25;84.20
72114;SHT31;59989;46.220;19.888;2023-05-16T15:30:17;21.88;81.78
72114;SHT31;59989;46.220;19.888;2023-05-16T15:33:19;22.10;81.71
72114;SHT31;59989;46.220;19.888;2023-05-16T15:36:22;22.50;79.92
72114;SHT31;59989;46.220;19.888;2023-05-16T15:39:24;21.24;83.12
72114;SHT31;59989;46.220;19.888;2023-05-16T15:42:27;20.84;84.83
72114;SHT31;59989;46.220;19.888;2023-05-16T15:45:29;20.90;84.93
72114;SHT31;59989;46.220;19.888;2023-05-16T15:48:33;22.76;79.42
72114;SHT31;59989;46.220;19.888;2023-05-16T15:51:36;22.89;78.13
72114;SHT31;59989;46.220;19.888;2023-05-16T15:54:39;22.85;78.71
72114;SHT31;59989;46.220;19.888;2023-05-16T15:57:41;22.03;81.26
72114;SHT31;59989;46.220;19.888;2023-05-16T16:00:45;21.17;84.06
72114;SHT31;59989;46.220;19.888;2023-05-16T16:03:48;20.73;85.06
72114;SHT31;59989;46.220;19.888;2023-05-16T16:06:51;20.60;86.19
72114;SHT31;59989;46.220;19.888;2023-05-16T16:09:54;20.50;86.41
72114;SHT31;59989;46.220;19.888;2023-05-16T16:13:00;20.48;86.55
72114;SHT31;59989;46.220;19.888;2023-05-16T16:16:03;20.42;86.32
72114;SHT31;59989;46.220;19.888;2023-05-16T16:19:07;20.30;86.52
72114;SHT31;59989;46.220;19.888;2023-05-16T16:22:09;20.39;86.32
72114;SHT31;59989;46.220;19.888;2023-05-16T16:25:12;20.40;86.15
72114;SHT31;59989;46.220;19.888;2023-05-16T16:28:14;21.06;84.72
72114;SHT31;59989;46.220;19.888;2023-05-16T16:31:17;22.09;80.37
72114;SHT31;59989;46.220;19.888;2023-05-16T16:34:20;23.33;76.33
72114;SHT31;59989;46.220;19.888;2023-05-16T16:37:24;23.45;75.56
72114;SHT31;59989;46.220;19.888;2023-05-16T16:40:27;24.52;71.73
72114;SHT31;59989;46.220;19.888;2023-05-16T16:43:30;23.77;74.22
72114;SHT31;59989;46.220;19.888;2023-05-16T16:46:32;23.27;75.67
72114;SHT31;59989;46.220;19.888;2023-05-16T16:49:35;22.16;78.93
72114;SHT31;59989;46.220;19.888;2023-05-16T16:52:38;21.66;81.13
72114;SHT31;59989;46.220;19.888;2023-05-16T16:55:40;21.49;81.27
72114;SHT31;59989;46.220;19.888;2023-05-16T16:58:43;21.24;82.28
72114;SHT31;59989;46.220;19.888;2023-05-16T17:01:45;20.90;83.41
72114;SHT31;59989;46.220;19.888;2023-05-16T17:04:48;20.63;84.36
72114;SHT31;59989;46.220;19.888;2023-05-16T17:07:50;20.42;85.21
72114;SHT31;59989;46.220;19.888;2023-05-16T17:10:53;20.14;86.08
72114;SHT31;59989;46.220;19.888;2023-05-16T17:13:56;19.88;86.99
72114;SHT31;59989;46.220;19.888;2023-05-16T17:17:02;19.74;87.32
72114;SHT31;59989;46.220;19.888;2023-05-16T17:20:05;19.56;87.93
72114;SHT31;59989;46.220;19.888;2023-05-16T17:23:09;19.43;88.20
72114;SHT31;59989;46.220;19.888;2023-05-16T17:26:11;19.34;88.55
72114;SHT31;59989;46.220;19.888;2023-05-16T17:29:15;19.20;88.90
72114;SHT31;59989;46.220;19.888;2023-05-16T17:32:17;19.11;89.12
72114;SHT31;59989;46.220;19.888;2023-05-16T17:35:22;18.95;89.46
72114;SHT31;59989;46.220;19.888;2023-05-16T17:38:24;18.87;89.72
72114;SHT31;59989;46.220;19.888;2023-05-16T17:41:27;18.74;90.22
72114;SHT31;59989;46.220;19.888;2023-05-16T17:44:30;18.65;90.53
72114;SHT31;59989;46.220;19.888;2023-05-16T17:47:33;18.61;90.61
72114;SHT31;59989;46.220;19.888;2023-05-16T17:50:35;18.57;90.89
72114;SHT31;59989;46.220;19.888;2023-05-16T17:53:38;18.53;91.00
72114;SHT31;59989;46.220;19.888;2023-05-16T17:56:41;18.53;90.97
72114;SHT31;59989;46.220;19.888;2023-05-16T17:59:47;18.48;91.10
72114;SHT31;59989;46.220;19.888;2023-05-16T18:03:10;18.44;91.14
72114;SHT31;59989;46.220;19.888;2023-05-16T18:06:14;18.41;91.36
72114;SHT31;59989;46.220;19.888;2023-05-16T18:09:28;18.33;91.55
72114;SHT31;59989;46.220;19.888;2023-05-16T18:12:39;18.23;91.78
72114;SHT31;59989;46.220;19.888;2023-05-16T18:16:01;18.12;92.13
72114;SHT31;59989;46.220;19.888;2023-05-16T18:19:29;18.06;92.13
72114;SHT31;59989;46.220;19.888;2023-05-16T18:22:47;17.97;92.27
72114;SHT31;59989;46.220;19.888;2023-05-16T18:25:53;17.88;92.58
72114;SHT31;59989;46.220;19.888;2023-05-16T18:29:04;17.76;92.75
72114;SHT31;59989;46.220;19.888;2023-05-16T18:32:28;17.65;92.85
72114;SHT31;59989;46.220;19.888;2023-05-16T18:35:31;17.62;92.91
72114;SHT31;59989;46.220;19.888;2023-05-16T18:38:34;17.58;93.37
72114;SHT31;59989;46.220;19.888;2023-05-16T18:41:37;17.57;93.32
72114;SHT31;59989;46.220;19.888;2023-05-16T18:44:39;17.55;93.27
72114;SHT31;59989;46.220;19.888;2023-05-16T18:47:42;17.51;93.34
72114;SHT31;59989;46.220;19.888;2023-05-16T18:50:45;17.48;93.31
72114;SHT31;59989;46.220;19.888;2023-05-16T18:53:47;17.45;93.27
72114;SHT31;59989;46.220;19.888;2023-05-16T18:56:50;17.48;93.25
72114;SHT31;59989;46.220;19.888;2023-05-16T18:59:53;17.47;93.35
72114;SHT31;59989;46.220;19.888;2023-05-16T19:02:57;17.48;93.39
72114;SHT31;59989;46.220;19.888;2023-05-16T19:06:00;17.39;93.30
72114;SHT31;59989;46.220;19.888;2023-05-16T19:09:03;17.37;93.17
72114;SHT31;59989;46.220;19.888;2023-05-16T19:12:06;17.38;93.15
72114;SHT31;59989;46.220;19.888;2023-05-16T19:15:10;17.41;92.97